createdAt,value
2023-01-19T00:00:39.731Z,-0.21
2023-01-19T00:04:02.728Z,-0.25
2023-01-19T00:07:24.829Z,-0.24
2023-01-19T00:10:48.213Z,-0.25
2023-01-19T00:14:10.079Z,-0.26
2023-01-19T00:17:32.220Z,-0.26
2023-01-19T00:20:55.710Z,-0.26
2023-01-19T00:24:17.741Z,-0.25
2023-01-19T00:27:39.557Z,-0.26
2023-01-19T00:31:01.507Z,-0.28
2023-01-19T00:34:23.124Z,-0.26
2023-01-19T00:37:46.911Z,-0.26
2023-01-19T00:41:08.663Z,-0.28
2023-01-19T00:44:30.514Z,-0.27
2023-01-19T00:47:54.912Z,-0.29
2023-01-19T00:51:17.095Z,-0.30
2023-01-19T00:54:40.652Z,-0.29
2023-01-19T00:58:03.853Z,-0.29
2023-01-19T01:01:45.021Z,-0.50
2023-01-19T01:05:08.824Z,-0.31
2023-01-19T01:08:31.119Z,-0.32
2023-01-19T01:11:54.666Z,-0.30
2023-01-19T01:15:17.898Z,-0.31
2023-01-19T01:18:39.536Z,-0.32
2023-01-19T01:22:01.455Z,-0.32
2023-01-19T01:25:24.792Z,-0.32
2023-01-19T01:28:47.947Z,-0.30
2023-01-19T01:32:10.194Z,-0.31
2023-01-19T01:35:32.513Z,-0.30
2023-01-19T01:38:54.415Z,-0.56
2023-01-19T01:42:19.652Z,-0.33
2023-01-19T01:45:43.807Z,-0.31
2023-01-19T01:49:09.142Z,-0.31
2023-01-19T01:52:35.571Z,-0.33
2023-01-19T01:55:57.799Z,-0.31
2023-01-19T01:59:26.953Z,-0.34
2023-01-19T02:02:55.251Z,-0.32
2023-01-19T02:06:17.564Z,-0.30
2023-01-19T02:09:57.014Z,-0.29
2023-01-19T02:13:20.564Z,-0.29
2023-01-19T02:16:42.423Z,-0.31
2023-01-19T02:20:06.405Z,-0.28
2023-01-19T02:23:39.781Z,-0.28
2023-01-19T02:27:02.187Z,-0.26
2023-01-19T02:30:24.467Z,-0.24
2023-01-19T02:33:46.718Z,-0.24
2023-01-19T02:37:12.519Z,-0.25
2023-01-19T02:40:38.684Z,-0.22
2023-01-19T02:44:02.237Z,-0.24
2023-01-19T02:47:24.349Z,-0.21
2023-01-19T02:50:49.984Z,-0.19
2023-01-19T02:54:29.354Z,-0.19
2023-01-19T02:58:01.918Z,-0.18
2023-01-19T03:01:34.518Z,-0.18
2023-01-19T03:05:06.259Z,-0.18
2023-01-19T03:08:48.754Z,-0.16
2023-01-19T03:12:16.151Z,-0.14
2023-01-19T03:15:48.250Z,-0.14
2023-01-19T03:19:14.182Z,-0.13
2023-01-19T03:22:36.548Z,-0.12
2023-01-19T03:26:00.905Z,-0.10
2023-01-19T03:29:25.776Z,-0.10
2023-01-19T03:32:53.420Z,-0.10
2023-01-19T03:36:19.932Z,-0.09
2023-01-19T03:39:41.734Z,-0.09
2023-01-19T03:43:04.912Z,-0.08
2023-01-19T03:46:27.610Z,-0.08
2023-01-19T03:49:53.496Z,-0.07
2023-01-19T03:53:17.931Z,-0.08
2023-01-19T03:56:40.066Z,-0.10
2023-01-19T04:00:01.834Z,-0.10
2023-01-19T04:03:23.569Z,-0.10
2023-01-19T04:06:46.638Z,-0.11
2023-01-19T04:10:12.837Z,-0.15
2023-01-19T04:13:34.997Z,-0.15
2023-01-19T04:16:59.672Z,-0.16
2023-01-19T04:20:22.606Z,-0.16
2023-01-19T04:23:46.172Z,-0.19
2023-01-19T04:27:07.939Z,-0.17
2023-01-19T04:30:29.716Z,-0.19
2023-01-19T04:33:51.591Z,-0.20
2023-01-19T04:37:13.475Z,-0.20
2023-01-19T04:40:36.919Z,-0.20
2023-01-19T04:43:58.918Z,-0.25
2023-01-19T04:47:20.619Z,-0.28
2023-01-19T04:50:42.773Z,-0.31
2023-01-19T04:54:05.020Z,-0.33
2023-01-19T04:57:28.122Z,-0.35
2023-01-19T05:00:51.336Z,-0.34
2023-01-19T05:04:13.182Z,-0.38
2023-01-19T05:07:35.353Z,-0.38
2023-01-19T05:10:58.074Z,-0.37
2023-01-19T05:14:21.541Z,-0.35
2023-01-19T05:17:43.582Z,-0.34
2023-01-19T05:21:06.183Z,-0.33
2023-01-19T05:24:27.934Z,-0.36
2023-01-19T05:27:49.973Z,-0.37
2023-01-19T05:31:13.801Z,-0.39
2023-01-19T05:34:35.910Z,-0.37
2023-01-19T05:37:57.686Z,-0.37
2023-01-19T05:41:19.696Z,-0.38
2023-01-19T05:44:41.750Z,-0.38
2023-01-19T05:48:05.017Z,-0.41
2023-01-19T05:51:26.776Z,-0.38
2023-01-19T05:54:48.520Z,-0.40
2023-01-19T05:58:10.412Z,-0.40
2023-01-19T06:01:33.342Z,-0.40
2023-01-19T06:04:56.870Z,-0.43
2023-01-19T06:08:18.932Z,-0.42
2023-01-19T06:11:40.659Z,-0.44
2023-01-19T06:15:02.660Z,-0.48
2023-01-19T06:18:24.480Z,-0.48
2023-01-19T06:21:52.446Z,-0.49
2023-01-19T06:25:14.647Z,-0.47
2023-01-19T06:28:36.472Z,-0.56
2023-01-19T06:31:58.363Z,-0.52
2023-01-19T06:35:20.260Z,-0.57
2023-01-19T06:38:43.855Z,-0.49
2023-01-19T06:42:06.003Z,-0.48
2023-01-19T06:45:27.908Z,-0.51
2023-01-19T06:48:49.646Z,-0.53
2023-01-19T06:52:14.242Z,-0.55
2023-01-19T06:55:37.462Z,-0.55
2023-01-19T06:58:59.658Z,-0.55
2023-01-19T07:02:26.947Z,-0.57
2023-01-19T07:05:53.027Z,-0.55
2023-01-19T07:09:17.151Z,-0.53
2023-01-19T07:12:40.563Z,-0.54
2023-01-19T07:16:07.486Z,-0.55
2023-01-19T07:19:30.232Z,-0.51
2023-01-19T07:22:57.346Z,-0.52
2023-01-19T07:26:21.558Z,-0.54
2023-01-19T07:29:45.046Z,-0.51
2023-01-19T07:33:07.200Z,-0.51
2023-01-19T07:36:28.893Z,-0.50
2023-01-19T07:39:50.673Z,-0.49
2023-01-19T07:43:12.640Z,-0.48
2023-01-19T07:46:38.946Z,-0.52
2023-01-19T07:50:00.830Z,-0.48
2023-01-19T07:53:22.642Z,-0.41
2023-01-19T07:56:44.673Z,-0.38
2023-01-19T08:00:08.965Z,-0.38
2023-01-19T08:03:32.327Z,-0.31
2023-01-19T08:06:54.572Z,-0.33
2023-01-19T08:10:17.372Z,-0.30
2023-01-19T08:13:39.020Z,-0.30
2023-01-19T08:17:01.241Z,-0.30
2023-01-19T08:20:24.572Z,-0.30
2023-01-19T08:23:52.790Z,-0.30
2023-01-19T08:27:14.817Z,-0.33
2023-01-19T08:30:36.848Z,-0.30
2023-01-19T08:33:58.799Z,-0.27
2023-01-19T08:37:21.936Z,-0.26
2023-01-19T08:40:44.426Z,-0.25
2023-01-19T08:44:06.607Z,-0.21
2023-01-19T08:47:28.588Z,-0.19
2023-01-19T08:50:52.249Z,-0.16
2023-01-19T08:54:18.601Z,-0.14
2023-01-19T08:57:41.154Z,-0.13
2023-01-19T09:01:04.106Z,-0.09
2023-01-19T09:04:26.195Z,-0.08
2023-01-19T09:07:48.401Z,-0.08
2023-01-19T09:11:13.866Z,-0.07
2023-01-19T09:14:35.851Z,-0.03
2023-01-19T09:17:58.561Z,-0.03
2023-01-19T09:21:20.465Z,-0.01
2023-01-19T09:24:42.296Z,-0.02
2023-01-19T09:28:05.915Z,0.06
2023-01-19T09:31:27.689Z,0.13
2023-01-19T09:34:49.601Z,0.18
2023-01-19T09:38:11.771Z,0.29
2023-01-19T09:41:36.297Z,0.30
2023-01-19T09:44:59.983Z,0.40
2023-01-19T09:48:30.457Z,0.41
2023-01-19T09:51:52.904Z,0.43
2023-01-19T09:55:22.299Z,0.44
2023-01-19T09:58:44.130Z,0.47
2023-01-19T10:02:20.998Z,0.47
2023-01-19T10:05:48.199Z,0.44
2023-01-19T10:09:16.023Z,0.36
2023-01-19T10:12:46.324Z,0.42
2023-01-19T10:16:23.026Z,0.38
2023-01-19T10:19:51.207Z,0.42
2023-01-19T10:23:30.271Z,0.44
2023-01-19T10:26:55.112Z,0.47
2023-01-19T10:30:26.651Z,0.45
2023-01-19T10:33:49.410Z,0.47
2023-01-19T10:37:24.435Z,0.47
2023-01-19T10:40:50.837Z,0.50
2023-01-19T10:44:12.955Z,0.53
2023-01-19T10:47:37.342Z,0.53
2023-01-19T10:51:04.405Z,0.52
2023-01-19T10:54:28.859Z,0.51
2023-01-19T10:57:53.672Z,0.49
2023-01-19T11:01:19.173Z,0.45
2023-01-19T11:04:42.229Z,0.51
2023-01-19T11:08:24.215Z,0.59
2023-01-19T11:11:50.460Z,0.63
2023-01-19T11:15:17.674Z,0.64
2023-01-19T11:18:41.908Z,0.62
2023-01-19T11:22:21.749Z,0.63
2023-01-19T11:25:47.466Z,0.59
2023-01-19T11:29:18.513Z,0.71
2023-01-19T11:32:40.476Z,0.67
2023-01-19T11:36:09.172Z,0.69
2023-01-19T11:39:31.986Z,0.67
2023-01-19T11:42:53.865Z,0.67
2023-01-19T11:46:18.879Z,0.67
2023-01-19T11:49:46.717Z,0.65
2023-01-19T11:53:17.502Z,0.72
2023-01-19T11:56:39.491Z,0.75
2023-01-19T12:00:05.300Z,0.77
2023-01-19T12:03:31.832Z,0.80
2023-01-19T12:06:56.562Z,0.76
2023-01-19T12:10:26.131Z,0.86
2023-01-19T12:13:48.352Z,0.89
2023-01-19T12:17:18.081Z,0.87
2023-01-19T12:20:45.142Z,0.94
2023-01-19T12:24:16.465Z,0.95
2023-01-19T12:27:41.946Z,0.94
2023-01-19T12:31:05.175Z,0.96
2023-01-19T12:34:40.182Z,0.97
2023-01-19T12:38:36.257Z,0.96
2023-01-19T12:42:16.067Z,0.85
2023-01-19T12:45:40.094Z,0.88
2023-01-19T12:49:07.089Z,0.88
2023-01-19T12:52:35.386Z,0.90
2023-01-19T12:56:08.798Z,0.77
2023-01-19T12:59:32.466Z,0.92
2023-01-19T13:02:55.961Z,0.85
2023-01-19T13:06:18.005Z,0.91
2023-01-19T13:09:42.774Z,0.94
2023-01-19T13:13:18.797Z,0.93
2023-01-19T13:17:19.894Z,0.94
2023-01-19T13:20:48.208Z,0.94
2023-01-19T13:24:11.777Z,0.95
2023-01-19T13:27:36.230Z,0.92
2023-01-19T13:31:05.245Z,0.92
2023-01-19T13:34:28.625Z,0.91
2023-01-19T13:37:51.572Z,0.91
2023-01-19T13:41:17.434Z,0.90
2023-01-19T13:44:43.745Z,0.88
2023-01-19T13:48:15.974Z,0.90
2023-01-19T13:51:37.985Z,0.89
2023-01-19T13:55:03.361Z,0.86
2023-01-19T13:58:26.328Z,0.84
2023-01-19T14:01:51.076Z,0.83
2023-01-19T14:05:22.523Z,0.80
2023-01-19T14:08:44.556Z,0.80
2023-01-19T14:12:14.190Z,0.80
2023-01-19T14:15:36.370Z,0.78
2023-01-19T14:19:02.567Z,0.80
2023-01-19T14:22:45.208Z,0.78
2023-01-19T14:26:07.443Z,0.76
2023-01-19T14:29:32.919Z,0.77
2023-01-19T14:32:55.689Z,0.81
2023-01-19T14:36:30.029Z,0.84
2023-01-19T14:39:57.477Z,0.80
2023-01-19T14:43:22.245Z,0.82
2023-01-19T14:46:47.967Z,0.85
2023-01-19T14:50:23.332Z,0.79
2023-01-19T14:53:50.635Z,0.82
2023-01-19T14:57:15.056Z,0.80
2023-01-19T15:00:37.126Z,0.78
2023-01-19T15:03:59.144Z,0.77
2023-01-19T15:07:24.211Z,0.75
2023-01-19T15:10:47.197Z,0.78
2023-01-19T15:14:14.917Z,0.76
2023-01-19T15:17:37.172Z,0.74
2023-01-19T15:21:02.963Z,0.72
2023-01-19T15:24:24.642Z,0.72
2023-01-19T15:27:47.811Z,0.71
2023-01-19T15:31:14.906Z,0.71
2023-01-19T15:34:36.991Z,0.68
2023-01-19T15:37:59.248Z,0.67
2023-01-19T15:41:25.037Z,0.66
2023-01-19T15:44:47.321Z,0.65
2023-01-19T15:48:12.684Z,0.64
2023-01-19T15:51:34.482Z,0.64
2023-01-19T15:54:56.609Z,0.64
2023-01-19T15:58:20.739Z,0.64
2023-01-19T16:01:42.851Z,0.64
2023-01-19T16:05:06.987Z,0.63
2023-01-19T16:08:30.014Z,0.64
2023-01-19T16:11:51.778Z,0.64
2023-01-19T16:15:13.754Z,0.65
2023-01-19T16:18:36.036Z,0.64
2023-01-19T16:21:59.229Z,0.64
2023-01-19T16:25:23.214Z,0.64
2023-01-19T16:28:45.175Z,0.64
2023-01-19T16:32:07.307Z,0.62
2023-01-19T16:35:29.339Z,0.66
2023-01-19T16:38:53.114Z,0.66
2023-01-19T16:42:16.660Z,0.66
2023-01-19T16:45:58.884Z,0.56
2023-01-19T16:49:22.499Z,0.61
2023-01-19T16:52:44.837Z,0.60
2023-01-19T16:56:09.565Z,0.58
2023-01-19T16:59:31.737Z,0.56
2023-01-19T17:02:53.584Z,0.58
2023-01-19T17:06:18.214Z,0.57
2023-01-19T17:09:40.431Z,0.55
2023-01-19T17:13:04.163Z,0.56
2023-01-19T17:16:26.802Z,0.56
2023-01-19T17:19:48.673Z,0.53
2023-01-19T17:23:10.532Z,0.51
2023-01-19T17:26:32.607Z,0.49
2023-01-19T17:29:55.972Z,0.47
2023-01-19T17:33:17.522Z,0.48
2023-01-19T17:36:41.123Z,0.45
2023-01-19T17:40:03.275Z,0.43
2023-01-19T17:43:24.997Z,0.45
2023-01-19T17:46:48.675Z,0.45
2023-01-19T17:50:12.093Z,0.45
2023-01-19T17:53:34.563Z,0.45
2023-01-19T17:56:56.551Z,0.45
2023-01-19T18:00:19.637Z,0.44
2023-01-19T18:03:43.129Z,0.45
2023-01-19T18:07:05.160Z,0.42
2023-01-19T18:10:27.089Z,0.42
2023-01-19T18:13:49.996Z,0.42
2023-01-19T18:17:11.786Z,0.42
2023-01-19T18:20:37.718Z,0.40
2023-01-19T18:24:02.407Z,0.39
2023-01-19T18:27:24.421Z,0.38
2023-01-19T18:30:46.231Z,0.37
2023-01-19T18:34:08.117Z,0.36
2023-01-19T18:37:31.983Z,0.26
2023-01-19T18:41:02.902Z,0.34
2023-01-19T18:44:24.832Z,0.33
2023-01-19T18:47:47.128Z,0.28
2023-01-19T18:51:10.735Z,0.24
2023-01-19T18:54:34.285Z,0.30
2023-01-19T18:57:56.469Z,0.30
2023-01-19T19:01:20.919Z,0.24
2023-01-19T19:04:43.222Z,0.30
2023-01-19T19:08:05.971Z,0.29
2023-01-19T19:11:29.740Z,0.25
2023-01-19T19:14:51.909Z,0.22
2023-01-19T19:18:15.264Z,0.30
2023-01-19T19:21:37.232Z,0.28
2023-01-19T19:24:59.150Z,0.29
2023-01-19T19:28:22.628Z,0.30
2023-01-19T19:31:46.392Z,0.29
2023-01-19T19:35:08.825Z,0.29
2023-01-19T19:38:30.757Z,0.29
2023-01-19T19:41:52.507Z,0.27
2023-01-19T19:45:15.921Z,0.30
2023-01-19T19:48:39.381Z,0.19
2023-01-19T19:52:01.432Z,0.34
2023-01-19T19:55:25.612Z,0.32
2023-01-19T19:58:47.394Z,0.26
2023-01-19T20:02:13.008Z,0.24
2023-01-19T20:05:37.185Z,0.31
2023-01-19T20:08:59.245Z,0.23
2023-01-19T20:12:21.246Z,0.30
2023-01-19T20:15:43.242Z,0.26
2023-01-19T20:19:06.970Z,0.29
2023-01-19T20:22:28.866Z,0.29
2023-01-19T20:25:50.828Z,0.27
2023-01-19T20:29:12.980Z,0.28
2023-01-19T20:32:35.137Z,0.29
2023-01-19T20:35:58.867Z,0.15
2023-01-19T20:39:22.606Z,0.28
2023-01-19T20:42:44.613Z,0.21
2023-01-19T20:46:06.855Z,0.26
2023-01-19T20:49:29.644Z,0.25
2023-01-19T20:52:52.974Z,0.26
2023-01-19T20:56:16.186Z,0.25
2023-01-19T20:59:39.053Z,0.18
2023-01-19T21:03:01.268Z,0.23
2023-01-19T21:06:23.668Z,0.23
2023-01-19T21:09:47.592Z,0.23
2023-01-19T21:13:09.777Z,0.23
2023-01-19T21:16:34.218Z,0.22
2023-01-19T21:19:56.091Z,0.20
2023-01-19T21:23:19.267Z,0.20
2023-01-19T21:26:42.949Z,0.18
2023-01-19T21:30:05.898Z,0.03
2023-01-19T21:33:28.013Z,0.17
2023-01-19T21:36:50.222Z,0.16
2023-01-19T21:40:13.711Z,0.11
2023-01-19T21:43:39.785Z,0.14
2023-01-19T21:47:02.511Z,0.14
2023-01-19T21:50:24.365Z,0.12
2023-01-19T21:53:46.993Z,0.08
2023-01-19T21:57:24.625Z,0.01
2023-01-19T22:00:48.188Z,0.04
2023-01-19T22:04:10.394Z,-0.09
2023-01-19T22:07:32.307Z,0.02
2023-01-19T22:10:54.306Z,-0.01
2023-01-19T22:14:16.205Z,0.01
2023-01-19T22:17:39.256Z,0.00
2023-01-19T22:21:09.229Z,0.03
2023-01-19T22:24:30.949Z,0.01
2023-01-19T22:27:52.713Z,0.01
2023-01-19T22:31:16.988Z,-0.02
2023-01-19T22:34:40.553Z,-0.02
2023-01-19T22:38:02.707Z,-0.04
2023-01-19T22:41:26.893Z,-0.08
2023-01-19T22:44:48.928Z,-0.03
2023-01-19T22:48:10.919Z,-0.03
2023-01-19T22:51:35.032Z,-0.10
2023-01-19T22:54:58.418Z,-0.04
2023-01-19T22:58:21.680Z,-0.20
2023-01-19T23:01:45.188Z,-0.11
2023-01-19T23:05:08.064Z,-0.12
2023-01-19T23:08:31.477Z,-0.13
2023-01-19T23:11:53.631Z,-0.15
2023-01-19T23:15:15.522Z,-0.14
2023-01-19T23:18:37.326Z,-0.14
2023-01-19T23:21:59.234Z,-0.16
2023-01-19T23:25:22.497Z,-0.19
2023-01-19T23:28:45.051Z,-0.15
2023-01-19T23:32:07.125Z,-0.16
2023-01-19T23:35:29.282Z,-0.19
2023-01-19T23:38:52.725Z,-0.19
2023-01-19T23:42:16.155Z,-0.19
2023-01-19T23:45:38.305Z,-0.18
2023-01-19T23:49:00.197Z,-0.17
2023-01-19T23:52:21.981Z,-0.17
2023-01-19T23:55:43.588Z,-0.19
2023-01-19T23:59:08.354Z,-0.22
